createdAt,value
2018-03-22T00:00:49.915Z,53.77
2018-03-22T00:03:17.522Z,52.23
2018-03-22T00:05:45.486Z,54.37
2018-03-22T00:08:13.610Z,53.40
2018-03-22T00:10:41.218Z,53.74
2018-03-22T00:13:08.783Z,53.47
2018-03-22T00:15:36.390Z,53.46
2018-03-22T00:18:04.272Z,53.54
2018-03-22T00:20:32.112Z,54.00
2018-03-22T00:22:59.722Z,53.52
2018-03-22T00:25:27.301Z,53.27
2018-03-22T00:27:54.868Z,52.98
2018-03-22T00:30:22.977Z,52.88
2018-03-22T00:32:50.583Z,52.58
2018-03-22T00:35:18.185Z,52.73
2018-03-22T00:37:45.788Z,52.55
2018-03-22T00:40:13.346Z,52.08
2018-03-22T00:42:41.078Z,52.04
2018-03-22T00:45:08.637Z,52.32
2018-03-22T00:47:36.277Z,52.19
2018-03-22T00:50:03.844Z,51.61
2018-03-22T00:52:31.443Z,52.15
2018-03-22T00:54:59.297Z,52.29
2018-03-22T00:57:27.549Z,51.92
2018-03-22T00:59:55.537Z,50.10
2018-03-22T01:02:23.168Z,51.77
2018-03-22T01:04:51.161Z,53.16
2018-03-22T01:07:18.730Z,52.85
2018-03-22T01:09:46.694Z,51.04
2018-03-22T01:12:14.268Z,53.51
2018-03-22T01:14:41.893Z,52.48
2018-03-22T01:17:09.461Z,52.71
2018-03-22T01:19:37.079Z,54.11
2018-03-22T01:22:04.694Z,53.08
2018-03-22T01:24:32.995Z,53.92
2018-03-22T01:27:00.557Z,52.98
2018-03-22T01:29:28.177Z,52.59
2018-03-22T01:31:55.984Z,53.82
2018-03-22T01:34:23.553Z,52.58
2018-03-22T01:36:51.162Z,54.68
2018-03-22T01:39:18.725Z,54.55
2018-03-22T01:41:47.132Z,54.00
2018-03-22T01:44:14.702Z,54.04
2018-03-22T01:46:42.314Z,53.75
2018-03-22T01:49:10.126Z,53.81
2018-03-22T01:51:38.141Z,52.17
2018-03-22T01:54:05.749Z,51.86
2018-03-22T01:56:33.590Z,53.50
2018-03-22T01:59:01.153Z,54.13
2018-03-22T02:01:28.747Z,52.28
2018-03-22T02:03:56.909Z,53.12
2018-03-22T02:06:24.733Z,54.20
2018-03-22T02:08:53.051Z,53.43
2018-03-22T02:11:20.981Z,52.54
2018-03-22T02:13:48.688Z,51.29
2018-03-22T02:16:16.253Z,54.08
2018-03-22T02:18:43.857Z,53.14
2018-03-22T02:21:26.922Z,54.04
2018-03-22T02:24:10.173Z,53.05
2018-03-22T02:26:52.825Z,53.37
2018-03-22T02:29:35.572Z,51.83
2018-03-22T02:32:18.222Z,52.73
2018-03-22T02:35:01.585Z,52.22
2018-03-22T02:37:44.638Z,52.92
2018-03-22T02:40:27.868Z,53.23
2018-03-22T02:43:10.182Z,53.08
2018-03-22T02:45:52.774Z,54.71
2018-03-22T02:48:35.942Z,55.57
2018-03-22T02:51:18.330Z,54.79
2018-03-22T02:54:01.283Z,54.66
2018-03-22T02:56:44.309Z,55.53
2018-03-22T02:59:27.054Z,55.29
2018-03-22T03:02:09.860Z,54.95
2018-03-22T03:04:52.878Z,55.62
2018-03-22T03:07:35.534Z,53.87
2018-03-22T03:10:18.850Z,55.72
2018-03-22T03:12:46.454Z,53.17
2018-03-22T03:15:29.288Z,54.73
2018-03-22T03:18:12.946Z,55.99
2018-03-22T03:20:55.985Z,55.25
2018-03-22T03:23:38.729Z,53.43
2018-03-22T03:26:21.362Z,55.07
2018-03-22T03:29:03.958Z,57.25
2018-03-22T03:31:46.559Z,56.45
2018-03-22T03:34:21.467Z,57.67
2018-03-22T03:36:49.661Z,55.74
2018-03-22T03:39:17.220Z,56.96
2018-03-22T03:41:44.817Z,56.70
2018-03-22T03:44:13.136Z,58.59
2018-03-22T03:46:40.746Z,56.78
2018-03-22T03:49:08.306Z,57.52
2018-03-22T03:51:35.907Z,56.43
2018-03-22T03:54:03.473Z,57.04
2018-03-22T03:56:31.078Z,57.00
2018-03-22T03:58:58.636Z,56.42
2018-03-22T04:01:26.233Z,57.14
2018-03-22T04:03:53.784Z,54.69
2018-03-22T04:06:21.397Z,54.12
2018-03-22T04:08:49.831Z,55.61
2018-03-22T04:11:17.436Z,56.91
2018-03-22T04:13:45.010Z,57.12
2018-03-22T04:16:13.009Z,56.79
2018-03-22T04:18:40.627Z,56.37
2018-03-22T04:21:08.192Z,56.94
2018-03-22T04:23:35.817Z,55.20
2018-03-22T04:26:03.387Z,56.17
2018-03-22T04:28:30.953Z,55.50
2018-03-22T04:30:58.560Z,55.97
2018-03-22T04:33:26.162Z,55.74
2018-03-22T04:35:53.717Z,56.27
2018-03-22T04:38:21.641Z,56.35
2018-03-22T04:40:49.204Z,56.10
2018-03-22T04:43:16.822Z,55.58
2018-03-22T04:45:44.390Z,54.96
2018-03-22T04:48:11.945Z,54.66
2018-03-22T04:50:39.549Z,54.67
2018-03-22T04:53:07.866Z,54.45
2018-03-22T04:55:35.438Z,54.69
2018-03-22T04:58:03.049Z,54.50
2018-03-22T05:00:31.112Z,54.42
2018-03-22T05:02:58.678Z,54.41
2018-03-22T05:05:26.770Z,54.18
2018-03-22T05:07:54.614Z,54.09
2018-03-22T05:10:22.230Z,54.09
2018-03-22T05:12:49.790Z,54.09
2018-03-22T05:15:17.363Z,54.03
2018-03-22T05:17:45.389Z,54.04
2018-03-22T05:20:12.990Z,54.03
2018-03-22T05:22:40.562Z,53.93
2018-03-22T05:25:08.368Z,53.91
2018-03-22T05:27:35.924Z,53.88
2018-03-22T05:30:04.300Z,53.88
2018-03-22T05:32:32.465Z,53.84
2018-03-22T05:35:00.061Z,53.84
2018-03-22T05:37:27.696Z,53.74
2018-03-22T05:39:55.301Z,53.67
2018-03-22T05:42:23.342Z,53.46
2018-03-22T05:44:51.595Z,53.42
2018-03-22T05:47:19.352Z,53.44
2018-03-22T05:49:47.239Z,53.25
2018-03-22T05:52:14.862Z,53.11
2018-03-22T05:54:42.430Z,52.93
2018-03-22T05:57:11.388Z,53.03
2018-03-22T05:59:38.949Z,53.12
2018-03-22T06:02:06.582Z,52.98
2018-03-22T06:04:34.137Z,52.95
2018-03-22T06:07:01.873Z,52.77
2018-03-22T06:09:29.956Z,52.83
2018-03-22T06:11:58.042Z,52.83
2018-03-22T06:14:25.638Z,52.74
2018-03-22T06:16:54.066Z,52.69
2018-03-22T06:19:22.636Z,52.50
2018-03-22T06:21:50.197Z,52.34
2018-03-22T06:24:17.861Z,52.36
2018-03-22T06:26:45.550Z,52.41
2018-03-22T06:29:13.674Z,52.53
2018-03-22T06:31:41.237Z,52.53
2018-03-22T06:34:08.862Z,52.54
2018-03-22T06:36:36.446Z,52.54
2018-03-22T06:39:04.351Z,52.60
2018-03-22T06:41:32.130Z,52.75
2018-03-22T06:43:59.743Z,52.75
2018-03-22T06:46:29.014Z,52.75
2018-03-22T06:48:56.632Z,52.52
2018-03-22T06:51:24.253Z,52.33
2018-03-22T06:53:51.839Z,52.41
2018-03-22T06:56:20.215Z,52.57
2018-03-22T06:58:47.912Z,52.89
2018-03-22T07:01:15.513Z,53.07
2018-03-22T07:03:43.136Z,53.03
2018-03-22T07:06:10.826Z,53.10
2018-03-22T07:08:38.540Z,53.17
2018-03-22T07:11:06.219Z,53.15
2018-03-22T07:13:33.773Z,53.16
2018-03-22T07:16:01.395Z,53.36
2018-03-22T07:18:30.186Z,53.33
2018-03-22T07:20:59.089Z,53.32
2018-03-22T07:23:27.570Z,53.57
2018-03-22T07:25:55.195Z,53.66
2018-03-22T07:28:23.290Z,53.51
2018-03-22T07:30:51.055Z,53.35
2018-03-22T07:33:19.123Z,53.26
2018-03-22T07:35:47.377Z,52.73
2018-03-22T07:38:15.188Z,52.53
2018-03-22T07:40:43.477Z,52.43
2018-03-22T07:43:16.637Z,52.57
2018-03-22T07:45:45.080Z,52.23
2018-03-22T07:48:12.872Z,52.25
2018-03-22T07:50:40.440Z,52.43
2018-03-22T07:53:08.091Z,52.66
2018-03-22T07:55:38.073Z,52.57
2018-03-22T07:58:06.304Z,52.80
2018-03-22T08:00:34.041Z,52.68
2018-03-22T08:03:01.679Z,52.80
2018-03-22T08:05:29.251Z,52.77
2018-03-22T08:07:56.849Z,53.04
2018-03-22T08:10:25.253Z,52.79
2018-03-22T08:12:53.673Z,52.74
2018-03-22T08:15:21.283Z,52.98
2018-03-22T08:17:48.865Z,53.04
2018-03-22T08:20:16.798Z,52.95
2018-03-22T08:22:44.373Z,52.54
2018-03-22T08:25:11.993Z,52.68
2018-03-22T08:27:40.512Z,52.63
2018-03-22T08:30:08.157Z,52.69
2018-03-22T08:32:35.815Z,52.55
2018-03-22T08:35:03.492Z,52.49
2018-03-22T08:37:31.052Z,52.49
2018-03-22T08:39:58.670Z,52.48
2018-03-22T08:42:26.864Z,52.28
2018-03-22T08:44:55.944Z,52.33
2018-03-22T08:47:23.613Z,52.60
2018-03-22T08:49:52.127Z,52.06
2018-03-22T08:52:20.553Z,51.62
2018-03-22T08:54:48.478Z,51.80
2018-03-22T08:57:18.242Z,51.73
2018-03-22T08:59:46.301Z,51.90
2018-03-22T09:02:13.870Z,51.75
2018-03-22T09:04:41.486Z,51.69
2018-03-22T09:07:12.997Z,51.71
2018-03-22T09:09:40.637Z,51.70
2018-03-22T09:12:09.609Z,51.47
2018-03-22T09:14:37.189Z,51.19
2018-03-22T09:17:04.815Z,51.08
2018-03-22T09:19:32.451Z,51.16
2018-03-22T09:22:01.045Z,51.21
2018-03-22T09:24:28.857Z,51.36
2018-03-22T09:27:02.105Z,51.58
2018-03-22T09:29:29.713Z,51.66
2018-03-22T09:31:57.321Z,52.00
2018-03-22T09:34:24.942Z,52.37
2018-03-22T09:36:52.503Z,52.93
2018-03-22T09:39:20.120Z,52.80
2018-03-22T09:41:47.933Z,52.90
2018-03-22T09:44:15.537Z,53.59
2018-03-22T09:46:44.023Z,53.73
2018-03-22T09:49:11.665Z,53.33
2018-03-22T09:51:39.273Z,53.68
2018-03-22T09:54:06.850Z,53.92
2018-03-22T09:56:35.257Z,54.36
2018-03-22T09:59:03.680Z,54.07
2018-03-22T10:01:32.004Z,53.58
2018-03-22T10:04:00.440Z,53.37
2018-03-22T10:06:28.420Z,53.51
2018-03-22T10:08:56.058Z,53.41
2018-03-22T10:11:23.641Z,53.10
2018-03-22T10:13:51.208Z,53.24
2018-03-22T10:16:18.834Z,53.27
2018-03-22T10:18:46.419Z,53.17
2018-03-22T10:21:14.034Z,53.66
2018-03-22T10:23:42.392Z,53.86
2018-03-22T10:26:09.970Z,54.18
2018-03-22T10:28:37.695Z,53.89
2018-03-22T10:31:05.272Z,54.05
2018-03-22T10:33:32.916Z,53.63
2018-03-22T10:36:01.536Z,53.43
2018-03-22T10:38:30.618Z,53.41
2018-03-22T10:40:58.371Z,52.91
2018-03-22T10:43:26.019Z,52.82
2018-03-22T10:45:53.647Z,52.76
2018-03-22T10:48:21.685Z,52.86
2018-03-22T10:50:49.306Z,53.23
2018-03-22T10:53:16.962Z,52.62
2018-03-22T10:55:44.539Z,52.60
2018-03-22T10:58:12.185Z,52.02
2018-03-22T11:00:39.854Z,52.13
2018-03-22T11:03:12.936Z,51.89
2018-03-22T11:05:40.616Z,51.71
2018-03-22T11:08:08.395Z,51.69
2018-03-22T11:10:35.961Z,51.75
2018-03-22T11:13:03.577Z,52.05
2018-03-22T11:15:31.943Z,52.21
2018-03-22T11:17:59.513Z,52.21
2018-03-22T11:20:27.384Z,51.99
2018-03-22T11:22:54.995Z,51.61
2018-03-22T11:25:23.042Z,51.83
2018-03-22T11:27:51.693Z,51.71
2018-03-22T11:30:20.469Z,52.08
2018-03-22T11:32:48.567Z,52.45
2018-03-22T11:35:16.174Z,52.40
2018-03-22T11:37:43.770Z,52.47
2018-03-22T11:40:11.959Z,52.65
2018-03-22T11:42:39.524Z,52.55
2018-03-22T11:45:07.268Z,52.16
2018-03-22T11:47:35.993Z,52.04
2018-03-22T11:50:03.601Z,51.95
2018-03-22T11:52:32.435Z,51.59
2018-03-22T11:55:00.053Z,51.47
2018-03-22T11:57:27.659Z,51.94
2018-03-22T11:59:55.275Z,52.03
2018-03-22T12:02:22.856Z,52.25
2018-03-22T12:04:50.461Z,52.23
2018-03-22T12:07:19.004Z,51.94
2018-03-22T12:09:46.556Z,51.91
2018-03-22T12:12:14.845Z,51.68
2018-03-22T12:14:43.885Z,51.96
2018-03-22T12:17:11.925Z,51.88
2018-03-22T12:19:39.486Z,51.75
2018-03-22T12:22:07.084Z,51.74
2018-03-22T12:24:34.631Z,51.79
2018-03-22T12:27:02.264Z,51.42
2018-03-22T12:29:29.822Z,51.44
2018-03-22T12:31:57.449Z,51.23
2018-03-22T12:34:25.033Z,51.22
2018-03-22T12:36:52.805Z,51.39
2018-03-22T12:39:20.563Z,51.73
2018-03-22T12:41:48.152Z,51.73
2018-03-22T12:44:15.712Z,52.09
2018-03-22T12:46:43.328Z,52.38
2018-03-22T12:49:11.804Z,52.57
2018-03-22T12:51:39.878Z,52.15
2018-03-22T12:54:07.502Z,51.97
2018-03-22T12:56:35.218Z,51.96
2018-03-22T12:59:02.825Z,51.91
2018-03-22T13:01:30.436Z,52.15
2018-03-22T13:03:59.107Z,52.10
2018-03-22T13:06:26.668Z,51.75
2018-03-22T13:08:54.268Z,51.48
2018-03-22T13:11:27.790Z,51.54
2018-03-22T13:13:56.934Z,52.03
2018-03-22T13:16:24.796Z,52.04
2018-03-22T13:18:52.577Z,52.10
2018-03-22T13:21:20.346Z,52.07
2018-03-22T13:23:47.944Z,51.79
2018-03-22T13:26:17.080Z,51.45
2018-03-22T13:28:45.311Z,51.73
2018-03-22T13:31:13.700Z,51.45
2018-03-22T13:33:41.504Z,51.61
2018-03-22T13:36:09.101Z,51.64
2018-03-22T13:38:36.763Z,51.45
2018-03-22T13:41:06.912Z,51.56
2018-03-22T13:43:34.476Z,51.44
2018-03-22T13:46:02.083Z,51.29
2018-03-22T13:48:29.734Z,51.21
2018-03-22T13:50:57.337Z,51.47
2018-03-22T13:53:24.896Z,51.19
2018-03-22T13:55:52.497Z,51.31
2018-03-22T13:58:20.180Z,51.30
2018-03-22T14:00:47.732Z,51.27
2018-03-22T14:03:15.464Z,51.50
2018-03-22T14:05:43.080Z,51.38
2018-03-22T14:08:10.667Z,51.45
2018-03-22T14:10:39.185Z,51.56
2018-03-22T14:13:07.115Z,51.48
2018-03-22T14:15:34.679Z,51.63
2018-03-22T14:18:02.298Z,51.63
2018-03-22T14:20:30.718Z,51.53
2018-03-22T14:22:58.313Z,51.48
2018-03-22T14:25:26.417Z,51.61
2018-03-22T14:27:54.869Z,51.64
2018-03-22T14:30:22.420Z,51.60
2018-03-22T14:32:50.894Z,51.22
2018-03-22T14:35:18.531Z,51.25
2018-03-22T14:37:46.087Z,51.30
2018-03-22T14:40:13.656Z,51.25
2018-03-22T14:42:41.334Z,51.29
2018-03-22T14:45:09.376Z,51.22
2018-03-22T14:47:37.187Z,51.27
2018-03-22T14:50:04.785Z,51.47
2018-03-22T14:52:33.325Z,51.42
2018-03-22T14:55:01.082Z,51.32
2018-03-22T14:57:29.487Z,51.37
2018-03-22T14:59:57.196Z,51.36
2018-03-22T15:02:25.667Z,51.49
2018-03-22T15:04:53.277Z,51.39
2018-03-22T15:07:20.853Z,51.27
2018-03-22T15:09:49.347Z,51.39
2018-03-22T15:12:17.277Z,51.49
2018-03-22T15:14:44.875Z,51.49
2018-03-22T15:17:12.483Z,51.57
2018-03-22T15:19:40.445Z,51.43
2018-03-22T15:22:08.000Z,51.28
2018-03-22T15:24:36.131Z,51.11
2018-03-22T15:27:03.688Z,51.01
2018-03-22T15:29:31.238Z,51.08
2018-03-22T15:32:01.114Z,51.15
2018-03-22T15:34:28.914Z,51.16
2018-03-22T15:36:56.459Z,51.14
2018-03-22T15:39:24.202Z,51.33
2018-03-22T15:41:51.806Z,51.56
2018-03-22T15:44:19.380Z,51.35
2018-03-22T15:46:46.967Z,51.41
2018-03-22T15:49:14.551Z,51.66
2018-03-22T15:51:44.128Z,51.38
2018-03-22T15:54:11.675Z,51.45
2018-03-22T15:56:40.085Z,51.71
2018-03-22T15:59:07.848Z,51.58
2018-03-22T16:01:35.587Z,51.81
2018-03-22T16:04:03.976Z,51.61
2018-03-22T16:06:32.990Z,51.51
2018-03-22T16:09:01.254Z,51.59
2018-03-22T16:11:28.802Z,51.76
2018-03-22T16:13:56.407Z,51.76
2018-03-22T16:16:24.036Z,51.78
2018-03-22T16:18:51.641Z,52.01
2018-03-22T16:21:19.206Z,52.13
2018-03-22T16:23:46.761Z,52.15
2018-03-22T16:26:14.375Z,51.88
2018-03-22T16:28:41.931Z,52.01
2018-03-22T16:31:10.441Z,52.08
2018-03-22T16:33:38.100Z,51.99
2018-03-22T16:36:06.695Z,52.04
2018-03-22T16:38:34.551Z,52.30
2018-03-22T16:41:03.349Z,52.15
2018-03-22T16:43:30.976Z,52.21
2018-03-22T16:45:58.796Z,52.14
2018-03-22T16:48:26.540Z,52.13
2018-03-22T16:50:56.409Z,52.25
2018-03-22T16:53:23.988Z,52.28
2018-03-22T16:55:52.259Z,52.21
2018-03-22T16:58:21.267Z,52.24
2018-03-22T17:00:49.481Z,52.25
2018-03-22T17:03:18.424Z,52.34
2018-03-22T17:05:46.466Z,52.28
2018-03-22T17:08:14.142Z,52.16
2018-03-22T17:10:42.596Z,52.12
2018-03-22T17:13:12.111Z,52.15
2018-03-22T17:15:40.881Z,52.34
2018-03-22T17:18:08.473Z,52.28
2018-03-22T17:20:36.335Z,52.31
2018-03-22T17:23:03.897Z,52.39
2018-03-22T17:25:32.512Z,52.37
2018-03-22T17:28:00.248Z,52.30
2018-03-22T17:30:28.688Z,52.30
2018-03-22T17:32:56.762Z,52.40
2018-03-22T17:35:24.722Z,52.38
2018-03-22T17:37:53.954Z,52.56
2018-03-22T17:40:23.065Z,52.48
2018-03-22T17:42:50.729Z,52.40
2018-03-22T17:45:19.717Z,52.37
2018-03-22T17:47:48.333Z,52.44
2018-03-22T17:50:17.021Z,52.58
2018-03-22T17:52:44.879Z,52.62
2018-03-22T17:55:13.355Z,52.79
2018-03-22T17:57:43.071Z,52.66
2018-03-22T18:00:12.816Z,52.59
2018-03-22T18:02:41.044Z,52.54
2018-03-22T18:05:09.853Z,52.68
2018-03-22T18:07:38.978Z,52.63
2018-03-22T18:10:07.237Z,52.55
2018-03-22T18:12:37.407Z,52.67
2018-03-22T18:15:06.743Z,52.65
2018-03-22T18:17:36.486Z,52.79
2018-03-22T18:20:05.859Z,52.70
2018-03-22T18:22:34.782Z,52.63
2018-03-22T18:25:04.601Z,52.64
2018-03-22T18:27:33.021Z,52.69
2018-03-22T18:30:02.569Z,52.66
2018-03-22T18:32:31.013Z,52.66
2018-03-22T18:34:59.435Z,52.70
2018-03-22T18:37:27.770Z,52.61
2018-03-22T18:39:56.200Z,52.55
2018-03-22T18:42:24.993Z,52.54
2018-03-22T18:44:54.037Z,52.57
2018-03-22T18:47:22.935Z,52.57
2018-03-22T18:49:51.375Z,52.63
2018-03-22T18:52:21.626Z,52.61
2018-03-22T18:54:49.635Z,52.57
2018-03-22T18:57:19.918Z,52.61
2018-03-22T18:59:53.431Z,52.53
2018-03-22T19:02:22.029Z,52.53
2018-03-22T19:04:50.685Z,52.50
2018-03-22T19:07:20.224Z,52.57
2018-03-22T19:09:49.903Z,52.53
2018-03-22T19:12:19.713Z,52.55
2018-03-22T19:14:48.584Z,52.60
2018-03-22T19:17:18.206Z,52.60
2018-03-22T19:19:47.094Z,52.57
2018-03-22T19:22:15.872Z,52.58
2018-03-22T19:24:44.475Z,52.54
2018-03-22T19:27:13.260Z,52.66
2018-03-22T19:29:41.534Z,52.56
2018-03-22T19:32:10.344Z,52.53
2018-03-22T19:34:38.503Z,52.54
2018-03-22T19:37:07.957Z,52.58
2018-03-22T19:39:36.588Z,52.54
2018-03-22T19:42:06.278Z,52.51
2018-03-22T19:44:35.466Z,52.50
2018-03-22T19:47:04.577Z,52.49
2018-03-22T19:49:32.864Z,52.46
2018-03-22T19:52:02.400Z,52.44
2018-03-22T19:54:31.717Z,52.46
2018-03-22T19:57:00.689Z,52.50
2018-03-22T19:59:29.081Z,52.52
2018-03-22T20:01:59.355Z,52.55
2018-03-22T20:04:28.036Z,52.67
2018-03-22T20:06:56.045Z,52.45
2018-03-22T20:09:24.522Z,52.63
2018-03-22T20:11:57.101Z,52.61
2018-03-22T20:14:27.376Z,52.59
2018-03-22T20:16:56.545Z,52.41
2018-03-22T20:19:24.877Z,52.69
2018-03-22T20:21:53.189Z,52.62
2018-03-22T20:24:21.828Z,52.55
2018-03-22T20:26:51.118Z,52.55
2018-03-22T20:29:20.117Z,52.48
2018-03-22T20:31:48.798Z,52.44
2018-03-22T20:34:17.040Z,52.50
2018-03-22T20:36:46.367Z,52.46
2018-03-22T20:39:17.242Z,52.34
2018-03-22T20:41:45.110Z,52.34
2018-03-22T20:44:13.002Z,52.54
2018-03-22T20:46:41.197Z,52.61
2018-03-22T20:49:09.169Z,52.62
2018-03-22T20:51:37.726Z,52.66
2018-03-22T20:54:06.210Z,52.57
2018-03-22T20:56:34.259Z,52.52
2018-03-22T20:59:02.477Z,52.25
2018-03-22T21:01:30.094Z,52.36
2018-03-22T21:03:58.182Z,52.37
2018-03-22T21:06:26.402Z,52.60
2018-03-22T21:08:55.128Z,52.57
2018-03-22T21:11:23.624Z,52.53
2018-03-22T21:13:52.536Z,52.48
2018-03-22T21:16:20.494Z,52.63
2018-03-22T21:18:48.079Z,52.56
2018-03-22T21:21:15.825Z,52.51
2018-03-22T21:23:44.254Z,52.53
2018-03-22T21:26:12.776Z,52.43
2018-03-22T21:28:42.392Z,52.53
2018-03-22T21:31:11.496Z,52.51
2018-03-22T21:33:39.760Z,52.35
2018-03-22T21:36:08.696Z,52.49
2018-03-22T21:38:37.321Z,52.39
2018-03-22T21:41:04.889Z,52.54
2018-03-22T21:43:33.123Z,52.56
2018-03-22T21:46:01.561Z,52.53
2018-03-22T21:48:29.476Z,52.49
2018-03-22T21:51:02.729Z,52.74
2018-03-22T21:53:32.280Z,52.60
2018-03-22T21:55:59.862Z,52.57
2018-03-22T21:58:28.385Z,52.46
2018-03-22T22:00:57.800Z,52.59
2018-03-22T22:03:26.779Z,52.49
2018-03-22T22:05:54.889Z,52.57
2018-03-22T22:08:22.815Z,52.61
2018-03-22T22:10:50.411Z,52.69
2018-03-22T22:13:18.827Z,52.65
2018-03-22T22:15:47.281Z,52.78
2018-03-22T22:18:16.066Z,52.65
2018-03-22T22:20:44.054Z,52.68
2018-03-22T22:23:11.605Z,52.68
2018-03-22T22:25:39.193Z,52.72
2018-03-22T22:28:07.175Z,52.68
2018-03-22T22:30:35.064Z,52.72
2018-03-22T22:33:03.314Z,52.67
2018-03-22T22:35:30.909Z,52.69
2018-03-22T22:37:59.292Z,52.74
2018-03-22T22:40:27.211Z,52.69
2018-03-22T22:42:54.820Z,52.62
2018-03-22T22:45:22.372Z,52.61
2018-03-22T22:47:49.930Z,52.69
2018-03-22T22:50:18.866Z,52.63
2018-03-22T22:52:48.164Z,52.52
2018-03-22T22:55:15.713Z,52.63
2018-03-22T22:57:43.310Z,52.63
2018-03-22T23:00:10.858Z,52.75
2018-03-22T23:02:38.448Z,52.66
2018-03-22T23:05:06.001Z,52.69
2018-03-22T23:07:33.592Z,52.74
2018-03-22T23:10:01.179Z,52.75
2018-03-22T23:12:28.728Z,52.72
2018-03-22T23:14:56.311Z,52.68
2018-03-22T23:17:23.861Z,52.71
2018-03-22T23:19:53.364Z,52.84
2018-03-22T23:22:20.900Z,52.83
2018-03-22T23:24:48.639Z,52.75
2018-03-22T23:27:16.193Z,52.75
2018-03-22T23:29:43.785Z,52.75
2018-03-22T23:32:11.325Z,52.85
2018-03-22T23:34:38.922Z,52.99
2018-03-22T23:37:07.414Z,52.92
2018-03-22T23:39:34.997Z,52.84
2018-03-22T23:42:02.606Z,52.84
2018-03-22T23:44:31.733Z,52.87
2018-03-22T23:46:59.336Z,52.76
2018-03-22T23:49:26.905Z,52.79
2018-03-22T23:51:55.443Z,52.82
2018-03-22T23:54:23.881Z,52.78
2018-03-22T23:56:52.036Z,52.85
2018-03-22T23:59:20.856Z,52.78
